sensor_id;sensor_type;location;lat;lon;timestamp;temperature;humidity
51878;SHT31;37911;51.526;11.536;2022-11-14T00:01:37;2.73;94.08
51878;SHT31;37911;51.526;11.536;2022-11-14T00:05:03;2.64;93.96
51878;SHT31;37911;51.526;11.536;2022-11-14T00:08:27;2.57;93.92
51878;SHT31;37911;51.526;11.536;2022-11-14T00:11:49;2.60;94.04
51878;SHT31;37911;51.526;11.536;2022-11-14T00:15:12;2.56;94.05
51878;SHT31;37911;51.526;11.536;2022-11-14T00:18:35;2.54;94.11
51878;SHT31;37911;51.526;11.536;2022-11-14T00:22:00;2.53;93.99
51878;SHT31;37911;51.526;11.536;2022-11-14T00:25:22;2.49;93.91
51878;SHT31;37911;51.526;11.536;2022-11-14T00:28:44;2.54;93.83
51878;SHT31;37911;51.526;11.536;2022-11-14T00:32:06;2.56;94.00
51878;SHT31;37911;51.526;11.536;2022-11-14T00:35:29;2.60;93.93
51878;SHT31;37911;51.526;11.536;2022-11-14T00:38:54;2.63;93.88
51878;SHT31;37911;51.526;11.536;2022-11-14T00:42:16;2.65;93.85
51878;SHT31;37911;51.526;11.536;2022-11-14T00:45:41;2.64;93.85
51878;SHT31;37911;51.526;11.536;2022-11-14T00:49:03;2.73;93.85
51878;SHT31;37911;51.526;11.536;2022-11-14T00:52:26;2.74;93.80
51878;SHT31;37911;51.526;11.536;2022-11-14T00:55:51;2.74;93.80
51878;SHT31;37911;51.526;11.536;2022-11-14T00:59:13;2.80;93.79
51878;SHT31;37911;51.526;11.536;2022-11-14T01:02:36;2.81;93.68
51878;SHT31;37911;51.526;11.536;2022-11-14T01:06:03;2.81;93.59
51878;SHT31;37911;51.526;11.536;2022-11-14T01:09:26;2.85;93.59
51878;SHT31;37911;51.526;11.536;2022-11-14T01:12:51;2.84;93.67
51878;SHT31;37911;51.526;11.536;2022-11-14T01:16:14;2.87;93.71
51878;SHT31;37911;51.526;11.536;2022-11-14T01:19:37;2.95;93.77
51878;SHT31;37911;51.526;11.536;2022-11-14T01:22:59;2.95;93.78
51878;SHT31;37911;51.526;11.536;2022-11-14T01:26:22;2.95;93.84
51878;SHT31;37911;51.526;11.536;2022-11-14T01:29:47;2.98;93.89
51878;SHT31;37911;51.526;11.536;2022-11-14T01:33:09;3.04;93.88
51878;SHT31;37911;51.526;11.536;2022-11-14T01:36:31;3.07;93.91
51878;SHT31;37911;51.526;11.536;2022-11-14T01:39:53;3.04;93.95
51878;SHT31;37911;51.526;11.536;2022-11-14T01:43:27;3.08;93.94
51878;SHT31;37911;51.526;11.536;2022-11-14T01:46:55;3.12;93.93
51878;SHT31;37911;51.526;11.536;2022-11-14T01:50:18;3.12;93.91
51878;SHT31;37911;51.526;11.536;2022-11-14T01:53:41;3.12;93.90
51878;SHT31;37911;51.526;11.536;2022-11-14T01:57:04;3.12;93.94
51878;SHT31;37911;51.526;11.536;2022-11-14T02:00:28;3.16;93.90
51878;SHT31;37911;51.526;11.536;2022-11-14T02:03:54;3.15;93.90
51878;SHT31;37911;51.526;11.536;2022-11-14T02:07:17;3.24;93.92
51878;SHT31;37911;51.526;11.536;2022-11-14T02:10:40;3.25;93.88
51878;SHT31;37911;51.526;11.536;2022-11-14T02:14:02;3.24;93.89
51878;SHT31;37911;51.526;11.536;2022-11-14T02:17:25;3.24;93.92
51878;SHT31;37911;51.526;11.536;2022-11-14T02:20:50;3.24;93.92
51878;SHT31;37911;51.526;11.536;2022-11-14T02:24:13;3.28;93.96
51878;SHT31;37911;51.526;11.536;2022-11-14T02:27:36;3.29;93.90
51878;SHT31;37911;51.526;11.536;2022-11-14T02:30:59;3.31;93.93
51878;SHT31;37911;51.526;11.536;2022-11-14T02:34:22;3.26;93.80
51878;SHT31;37911;51.526;11.536;2022-11-14T02:37:46;3.29;93.91
51878;SHT31;37911;51.526;11.536;2022-11-14T02:41:09;3.32;93.96
51878;SHT31;37911;51.526;11.536;2022-11-14T02:44:32;3.32;94.05
51878;SHT31;37911;51.526;11.536;2022-11-14T02:47:56;3.39;94.05
51878;SHT31;37911;51.526;11.536;2022-11-14T02:51:18;3.40;94.07
51878;SHT31;37911;51.526;11.536;2022-11-14T02:54:43;3.38;94.04
51878;SHT31;37911;51.526;11.536;2022-11-14T02:58:05;3.39;94.11
51878;SHT31;37911;51.526;11.536;2022-11-14T03:01:28;3.42;94.02
51878;SHT31;37911;51.526;11.536;2022-11-14T03:04:50;3.42;93.98
51878;SHT31;37911;51.526;11.536;2022-11-14T03:08:13;3.43;93.98
51878;SHT31;37911;51.526;11.536;2022-11-14T03:11:38;3.48;94.02
51878;SHT31;37911;51.526;11.536;2022-11-14T03:15:00;3.51;94.00
51878;SHT31;37911;51.526;11.536;2022-11-14T03:18:22;3.48;94.03
51878;SHT31;37911;51.526;11.536;2022-11-14T03:21:45;3.46;93.98
51878;SHT31;37911;51.526;11.536;2022-11-14T03:25:07;3.49;94.03
51878;SHT31;37911;51.526;11.536;2022-11-14T03:28:33;3.55;94.01
51878;SHT31;37911;51.526;11.536;2022-11-14T03:31:55;3.58;94.00
51878;SHT31;37911;51.526;11.536;2022-11-14T03:35:17;3.59;93.97
51878;SHT31;37911;51.526;11.536;2022-11-14T03:38:40;3.59;93.93
51878;SHT31;37911;51.526;11.536;2022-11-14T03:42:02;3.62;93.89
51878;SHT31;37911;51.526;11.536;2022-11-14T03:45:27;3.58;93.89
51878;SHT31;37911;51.526;11.536;2022-11-14T03:48:49;3.55;93.88
51878;SHT31;37911;51.526;11.536;2022-11-14T03:52:11;3.59;93.88
51878;SHT31;37911;51.526;11.536;2022-11-14T03:55:34;3.62;93.82
51878;SHT31;37911;51.526;11.536;2022-11-14T03:58:58;3.62;93.78
51878;SHT31;37911;51.526;11.536;2022-11-14T04:02:22;3.60;93.86
51878;SHT31;37911;51.526;11.536;2022-11-14T04:05:45;3.58;93.73
51878;SHT31;37911;51.526;11.536;2022-11-14T04:09:09;3.46;93.78
51878;SHT31;37911;51.526;11.536;2022-11-14T04:12:31;3.52;93.85
51878;SHT31;37911;51.526;11.536;2022-11-14T04:15:54;3.46;93.83
51878;SHT31;37911;51.526;11.536;2022-11-14T04:19:19;3.48;93.87
51878;SHT31;37911;51.526;11.536;2022-11-14T04:22:41;3.46;93.92
51878;SHT31;37911;51.526;11.536;2022-11-14T04:26:04;3.45;94.00
51878;SHT31;37911;51.526;11.536;2022-11-14T04:29:26;3.48;94.02
51878;SHT31;37911;51.526;11.536;2022-11-14T04:32:48;3.45;94.04
51878;SHT31;37911;51.526;11.536;2022-11-14T04:36:13;3.45;94.11
51878;SHT31;37911;51.526;11.536;2022-11-14T04:39:36;3.42;94.08
51878;SHT31;37911;51.526;11.536;2022-11-14T04:42:58;3.40;94.05
51878;SHT31;37911;51.526;11.536;2022-11-14T04:46:20;3.45;94.07
51878;SHT31;37911;51.526;11.536;2022-11-14T04:49:44;3.42;94.02
51878;SHT31;37911;51.526;11.536;2022-11-14T04:53:09;3.36;94.23
51878;SHT31;37911;51.526;11.536;2022-11-14T04:56:32;3.42;94.24
51878;SHT31;37911;51.526;11.536;2022-11-14T04:59:54;3.45;94.27
51878;SHT31;37911;51.526;11.536;2022-11-14T05:03:16;3.48;94.29
51878;SHT31;37911;51.526;11.536;2022-11-14T05:06:39;3.42;94.19
51878;SHT31;37911;51.526;11.536;2022-11-14T05:10:04;3.42;94.31
51878;SHT31;37911;51.526;11.536;2022-11-14T05:13:26;3.40;94.33
51878;SHT31;37911;51.526;11.536;2022-11-14T05:16:48;3.46;94.34
51878;SHT31;37911;51.526;11.536;2022-11-14T05:20:11;3.42;94.29
51878;SHT31;37911;51.526;11.536;2022-11-14T05:23:34;3.38;94.41
51878;SHT31;37911;51.526;11.536;2022-11-14T05:26:59;3.39;94.43
51878;SHT31;37911;51.526;11.536;2022-11-14T05:30:21;3.40;94.45
51878;SHT31;37911;51.526;11.536;2022-11-14T05:33:44;3.35;94.45
51878;SHT31;37911;51.526;11.536;2022-11-14T05:37:06;3.34;94.49
51878;SHT31;37911;51.526;11.536;2022-11-14T05:40:29;3.35;94.44
51878;SHT31;37911;51.526;11.536;2022-11-14T05:43:54;3.32;94.46
51878;SHT31;37911;51.526;11.536;2022-11-14T05:47:16;3.32;94.45
51878;SHT31;37911;51.526;11.536;2022-11-14T05:50:38;3.35;94.49
51878;SHT31;37911;51.526;11.536;2022-11-14T05:54:01;3.31;94.45
51878;SHT31;37911;51.526;11.536;2022-11-14T05:57:23;3.28;94.57
51878;SHT31;37911;51.526;11.536;2022-11-14T06:00:49;3.32;94.48
51878;SHT31;37911;51.526;11.536;2022-11-14T06:04:12;3.28;94.42
51878;SHT31;37911;51.526;11.536;2022-11-14T06:07:34;3.29;94.50
51878;SHT31;37911;51.526;11.536;2022-11-14T06:11:01;3.31;94.50
51878;SHT31;37911;51.526;11.536;2022-11-14T06:14:24;3.25;94.54
51878;SHT31;37911;51.526;11.536;2022-11-14T06:17:51;3.32;94.51
51878;SHT31;37911;51.526;11.536;2022-11-14T06:21:15;3.39;94.48
51878;SHT31;37911;51.526;11.536;2022-11-14T06:24:38;3.49;94.41
51878;SHT31;37911;51.526;11.536;2022-11-14T06:28:00;3.34;94.21
51878;SHT31;37911;51.526;11.536;2022-11-14T06:31:23;3.34;94.32
51878;SHT31;37911;51.526;11.536;2022-11-14T06:34:48;3.34;94.32
51878;SHT31;37911;51.526;11.536;2022-11-14T06:38:11;3.34;94.23
51878;SHT31;37911;51.526;11.536;2022-11-14T06:41:33;3.31;94.23
51878;SHT31;37911;51.526;11.536;2022-11-14T06:44:56;3.29;94.19
51878;SHT31;37911;51.526;11.536;2022-11-14T06:48:19;3.36;94.24
51878;SHT31;37911;51.526;11.536;2022-11-14T06:51:44;3.38;94.22
51878;SHT31;37911;51.526;11.536;2022-11-14T06:55:07;3.34;94.23
51878;SHT31;37911;51.526;11.536;2022-11-14T06:58:31;3.36;94.27
51878;SHT31;37911;51.526;11.536;2022-11-14T07:01:54;3.38;94.26
51878;SHT31;37911;51.526;11.536;2022-11-14T07:05:16;3.39;94.38
51878;SHT31;37911;51.526;11.536;2022-11-14T07:08:42;3.40;94.26
51878;SHT31;37911;51.526;11.536;2022-11-14T07:12:05;3.40;94.20
51878;SHT31;37911;51.526;11.536;2022-11-14T07:15:27;3.43;94.11
51878;SHT31;37911;51.526;11.536;2022-11-14T07:18:49;3.46;94.03
51878;SHT31;37911;51.526;11.536;2022-11-14T07:22:12;3.46;94.15
51878;SHT31;37911;51.526;11.536;2022-11-14T07:25:37;3.43;94.08
51878;SHT31;37911;51.526;11.536;2022-11-14T07:29:00;3.42;93.94
51878;SHT31;37911;51.526;11.536;2022-11-14T07:32:24;3.36;93.94
51878;SHT31;37911;51.526;11.536;2022-11-14T07:35:46;3.45;94.08
51878;SHT31;37911;51.526;11.536;2022-11-14T07:39:08;3.51;93.94
51878;SHT31;37911;51.526;11.536;2022-11-14T07:42:35;3.56;93.98
51878;SHT31;37911;51.526;11.536;2022-11-14T07:45:58;3.65;93.72
51878;SHT31;37911;51.526;11.536;2022-11-14T07:49:22;3.60;93.84
51878;SHT31;37911;51.526;11.536;2022-11-14T07:52:49;3.63;93.67
51878;SHT31;37911;51.526;11.536;2022-11-14T07:56:12;3.66;93.63
51878;SHT31;37911;51.526;11.536;2022-11-14T07:59:38;3.66;93.39
51878;SHT31;37911;51.526;11.536;2022-11-14T08:03:00;3.63;93.41
51878;SHT31;37911;51.526;11.536;2022-11-14T08:06:25;3.69;93.58
51878;SHT31;37911;51.526;11.536;2022-11-14T08:09:47;3.72;93.62
51878;SHT31;37911;51.526;11.536;2022-11-14T08:13:10;3.73;93.59
51878;SHT31;37911;51.526;11.536;2022-11-14T08:16:35;3.82;93.63
51878;SHT31;37911;51.526;11.536;2022-11-14T08:20:01;3.91;93.44
51878;SHT31;37911;51.526;11.536;2022-11-14T08:23:24;3.89;93.17
51878;SHT31;37911;51.526;11.536;2022-11-14T08:26:46;3.79;92.93
51878;SHT31;37911;51.526;11.536;2022-11-14T08:30:10;3.89;92.93
51878;SHT31;37911;51.526;11.536;2022-11-14T08:33:36;3.86;92.38
51878;SHT31;37911;51.526;11.536;2022-11-14T08:37:00;3.77;92.28
51878;SHT31;37911;51.526;11.536;2022-11-14T08:40:23;3.93;92.30
51878;SHT31;37911;51.526;11.536;2022-11-14T08:43:46;4.03;92.24
51878;SHT31;37911;51.526;11.536;2022-11-14T08:47:08;4.09;91.91
51878;SHT31;37911;51.526;11.536;2022-11-14T08:50:35;4.18;91.88
51878;SHT31;37911;51.526;11.536;2022-11-14T08:53:59;4.22;91.75
51878;SHT31;37911;51.526;11.536;2022-11-14T08:57:21;4.20;91.74
51878;SHT31;37911;51.526;11.536;2022-11-14T09:00:43;4.16;91.50
51878;SHT31;37911;51.526;11.536;2022-11-14T09:04:05;4.16;91.63
51878;SHT31;37911;51.526;11.536;2022-11-14T09:07:31;4.28;91.63
51878;SHT31;37911;51.526;11.536;2022-11-14T09:10:55;4.37;91.59
51878;SHT31;37911;51.526;11.536;2022-11-14T09:14:20;4.40;91.46
51878;SHT31;37911;51.526;11.536;2022-11-14T09:17:43;4.40;91.23
51878;SHT31;37911;51.526;11.536;2022-11-14T09:21:08;4.38;90.92
51878;SHT31;37911;51.526;11.536;2022-11-14T09:24:35;4.52;91.09
51878;SHT31;37911;51.526;11.536;2022-11-14T09:27:57;4.51;91.08
51878;SHT31;37911;51.526;11.536;2022-11-14T09:31:24;4.55;90.92
51878;SHT31;37911;51.526;11.536;2022-11-14T09:34:47;4.61;90.70
51878;SHT31;37911;51.526;11.536;2022-11-14T09:38:11;4.64;90.85
51878;SHT31;37911;51.526;11.536;2022-11-14T09:41:46;4.85;90.71
51878;SHT31;37911;51.526;11.536;2022-11-14T09:45:14;4.82;90.49
51878;SHT31;37911;51.526;11.536;2022-11-14T09:48:36;4.78;90.38
51878;SHT31;37911;51.526;11.536;2022-11-14T09:52:04;4.79;90.30
51878;SHT31;37911;51.526;11.536;2022-11-14T09:55:31;4.78;89.93
51878;SHT31;37911;51.526;11.536;2022-11-14T09:58:56;4.78;90.13
51878;SHT31;37911;51.526;11.536;2022-11-14T10:02:30;4.91;90.18
51878;SHT31;37911;51.526;11.536;2022-11-14T10:06:05;4.97;89.99
51878;SHT31;37911;51.526;11.536;2022-11-14T10:09:52;5.16;90.15
51878;SHT31;37911;51.526;11.536;2022-11-14T10:13:32;5.26;90.17
51878;SHT31;37911;51.526;11.536;2022-11-14T10:17:10;5.18;89.99
51878;SHT31;37911;51.526;11.536;2022-11-14T10:20:42;5.18;90.01
51878;SHT31;37911;51.526;11.536;2022-11-14T10:24:21;5.30;90.18
51878;SHT31;37911;51.526;11.536;2022-11-14T10:27:56;5.40;90.26
51878;SHT31;37911;51.526;11.536;2022-11-14T10:31:31;5.46;90.17
51878;SHT31;37911;51.526;11.536;2022-11-14T10:35:03;5.40;90.33
51878;SHT31;37911;51.526;11.536;2022-11-14T10:38:36;5.57;90.34
51878;SHT31;37911;51.526;11.536;2022-11-14T10:42:07;5.61;90.14
51878;SHT31;37911;51.526;11.536;2022-11-14T10:45:34;5.73;89.79
51878;SHT31;37911;51.526;11.536;2022-11-14T10:48:59;5.77;89.75
51878;SHT31;37911;51.526;11.536;2022-11-14T10:52:34;5.87;89.50
51878;SHT31;37911;51.526;11.536;2022-11-14T10:55:58;5.80;89.37
51878;SHT31;37911;51.526;11.536;2022-11-14T10:59:21;5.87;89.62
51878;SHT31;37911;51.526;11.536;2022-11-14T11:02:51;5.93;89.56
51878;SHT31;37911;51.526;11.536;2022-11-14T11:06:24;5.95;89.50
51878;SHT31;37911;51.526;11.536;2022-11-14T11:09:57;5.94;89.43
51878;SHT31;37911;51.526;11.536;2022-11-14T11:13:34;5.93;89.88
51878;SHT31;37911;51.526;11.536;2022-11-14T11:17:21;6.11;89.62
51878;SHT31;37911;51.526;11.536;2022-11-14T11:21:00;6.17;89.31
51878;SHT31;37911;51.526;11.536;2022-11-14T11:24:31;6.38;89.44
51878;SHT31;37911;51.526;11.536;2022-11-14T11:28:15;6.63;89.01
51878;SHT31;37911;51.526;11.536;2022-11-14T11:31:49;6.92;88.10
51878;SHT31;37911;51.526;11.536;2022-11-14T11:35:13;6.97;87.53
51878;SHT31;37911;51.526;11.536;2022-11-14T11:38:36;6.89;87.43
51878;SHT31;37911;51.526;11.536;2022-11-14T11:42:00;6.82;87.45
51878;SHT31;37911;51.526;11.536;2022-11-14T11:45:29;6.92;87.56
51878;SHT31;37911;51.526;11.536;2022-11-14T11:49:00;7.01;87.33
51878;SHT31;37911;51.526;11.536;2022-11-14T11:52:30;7.06;86.85
51878;SHT31;37911;51.526;11.536;2022-11-14T11:55:59;7.17;86.94
51878;SHT31;37911;51.526;11.536;2022-11-14T11:59:28;7.37;86.64
51878;SHT31;37911;51.526;11.536;2022-11-14T12:02:58;7.64;86.17
51878;SHT31;37911;51.526;11.536;2022-11-14T12:06:23;7.92;85.25
51878;SHT31;37911;51.526;11.536;2022-11-14T12:09:48;8.07;84.85
51878;SHT31;37911;51.526;11.536;2022-11-14T12:13:25;8.17;84.70
51878;SHT31;37911;51.526;11.536;2022-11-14T12:17:12;8.01;84.74
51878;SHT31;37911;51.526;11.536;2022-11-14T12:20:55;8.09;84.75
51878;SHT31;37911;51.526;11.536;2022-11-14T12:25:00;8.07;84.80
51878;SHT31;37911;51.526;11.536;2022-11-14T12:32:21;8.37;84.37
51878;SHT31;37911;51.526;11.536;2022-11-14T12:35:54;8.49;83.95
51878;SHT31;37911;51.526;11.536;2022-11-14T12:39:22;8.66;83.56
51878;SHT31;37911;51.526;11.536;2022-11-14T12:42:46;8.71;83.10
51878;SHT31;37911;51.526;11.536;2022-11-14T12:46:10;8.74;83.19
51878;SHT31;37911;51.526;11.536;2022-11-14T12:49:37;8.84;82.86
51878;SHT31;37911;51.526;11.536;2022-11-14T12:53:02;8.89;82.85
51878;SHT31;37911;51.526;11.536;2022-11-14T12:57:01;8.96;82.82
51878;SHT31;37911;51.526;11.536;2022-11-14T13:00:28;8.96;82.97
51878;SHT31;37911;51.526;11.536;2022-11-14T13:04:04;8.97;82.91
51878;SHT31;37911;51.526;11.536;2022-11-14T13:07:36;9.07;82.79
51878;SHT31;37911;51.526;11.536;2022-11-14T13:11:37;9.08;82.91
51878;SHT31;37911;51.526;11.536;2022-11-14T13:15:29;9.22;82.83
51878;SHT31;37911;51.526;11.536;2022-11-14T13:19:15;9.36;82.51
51878;SHT31;37911;51.526;11.536;2022-11-14T13:22:52;9.51;82.13
51878;SHT31;37911;51.526;11.536;2022-11-14T13:26:47;9.46;81.95
51878;SHT31;37911;51.526;11.536;2022-11-14T13:30:10;9.38;82.28
51878;SHT31;37911;51.526;11.536;2022-11-14T13:33:40;9.35;82.36
51878;SHT31;37911;51.526;11.536;2022-11-14T13:37:11;9.29;82.78
51878;SHT31;37911;51.526;11.536;2022-11-14T13:40:39;9.25;83.02
51878;SHT31;37911;51.526;11.536;2022-11-14T13:52:06;9.14;83.37
51878;SHT31;37911;51.526;11.536;2022-11-14T13:55:37;9.11;83.11
51878;SHT31;37911;51.526;11.536;2022-11-14T13:59:29;9.08;82.87
51878;SHT31;37911;51.526;11.536;2022-11-14T14:03:14;9.07;82.88
51878;SHT31;37911;51.526;11.536;2022-11-14T14:06:51;9.05;82.78
51878;SHT31;37911;51.526;11.536;2022-11-14T14:10:23;8.98;83.00
51878;SHT31;37911;51.526;11.536;2022-11-14T14:13:54;8.91;83.18
51878;SHT31;37911;51.526;11.536;2022-11-14T14:17:30;8.83;83.45
51878;SHT31;37911;51.526;11.536;2022-11-14T14:20:59;8.76;83.74
51878;SHT31;37911;51.526;11.536;2022-11-14T14:24:38;8.73;84.03
51878;SHT31;37911;51.526;11.536;2022-11-14T14:28:10;8.70;84.16
51878;SHT31;37911;51.526;11.536;2022-11-14T14:31:37;8.68;84.15
51878;SHT31;37911;51.526;11.536;2022-11-14T14:35:21;8.57;84.19
51878;SHT31;37911;51.526;11.536;2022-11-14T14:38:44;8.52;84.11
51878;SHT31;37911;51.526;11.536;2022-11-14T14:42:10;8.40;84.20
51878;SHT31;37911;51.526;11.536;2022-11-14T14:45:44;8.22;85.10
51878;SHT31;37911;51.526;11.536;2022-11-14T14:49:07;8.10;85.33
51878;SHT31;37911;51.526;11.536;2022-11-14T14:52:34;8.02;85.61
51878;SHT31;37911;51.526;11.536;2022-11-14T14:55:59;7.92;85.89
51878;SHT31;37911;51.526;11.536;2022-11-14T14:59:23;7.79;86.13
51878;SHT31;37911;51.526;11.536;2022-11-14T15:02:46;7.74;86.27
51878;SHT31;37911;51.526;11.536;2022-11-14T15:06:25;7.79;86.68
51878;SHT31;37911;51.526;11.536;2022-11-14T15:09:56;8.37;87.00
51878;SHT31;37911;51.526;11.536;2022-11-14T15:13:21;9.04;86.34
51878;SHT31;37911;51.526;11.536;2022-11-14T15:16:46;9.73;84.31
51878;SHT31;37911;51.526;11.536;2022-11-14T15:20:20;10.37;79.69
51878;SHT31;37911;51.526;11.536;2022-11-14T15:23:43;10.99;76.26
51878;SHT31;37911;51.526;11.536;2022-11-14T15:27:12;11.97;75.79
51878;SHT31;37911;51.526;11.536;2022-11-14T15:30:35;12.31;72.50
51878;SHT31;37911;51.526;11.536;2022-11-14T15:34:05;12.07;72.84
51878;SHT31;37911;51.526;11.536;2022-11-14T15:37:28;12.28;70.64
51878;SHT31;37911;51.526;11.536;2022-11-14T15:41:19;12.42;69.25
51878;SHT31;37911;51.526;11.536;2022-11-14T15:44:44;11.98;69.70
51878;SHT31;37911;51.526;11.536;2022-11-14T15:48:13;11.86;69.03
51878;SHT31;37911;51.526;11.536;2022-11-14T15:51:41;11.66;68.93
51878;SHT31;37911;51.526;11.536;2022-11-14T15:55:12;11.36;70.10
51878;SHT31;37911;51.526;11.536;2022-11-14T15:58:34;11.38;74.20
51878;SHT31;37911;51.526;11.536;2022-11-14T16:02:03;12.04;72.69
51878;SHT31;37911;51.526;11.536;2022-11-14T16:05:31;12.44;67.55
51878;SHT31;37911;51.526;11.536;2022-11-14T16:08:54;11.94;67.96
51878;SHT31;37911;51.526;11.536;2022-11-14T16:12:16;11.30;68.64
51878;SHT31;37911;51.526;11.536;2022-11-14T16:15:38;11.07;69.52
51878;SHT31;37911;51.526;11.536;2022-11-14T16:19:04;10.71;72.16
51878;SHT31;37911;51.526;11.536;2022-11-14T16:22:29;10.58;70.22
51878;SHT31;37911;51.526;11.536;2022-11-14T16:25:53;10.78;74.75
51878;SHT31;37911;51.526;11.536;2022-11-14T16:29:16;10.94;70.87
51878;SHT31;37911;51.526;11.536;2022-11-14T16:32:38;11.74;66.85
51878;SHT31;37911;51.526;11.536;2022-11-14T16:36:09;11.08;67.95
51878;SHT31;37911;51.526;11.536;2022-11-14T16:39:31;11.25;70.67
51878;SHT31;37911;51.526;11.536;2022-11-14T16:42:55;9.93;70.57
51878;SHT31;37911;51.526;11.536;2022-11-14T16:46:17;9.46;72.62
51878;SHT31;37911;51.526;11.536;2022-11-14T16:49:39;9.36;72.57
51878;SHT31;37911;51.526;11.536;2022-11-14T16:53:04;9.17;73.90
51878;SHT31;37911;51.526;11.536;2022-11-14T16:56:26;8.57;74.78
51878;SHT31;37911;51.526;11.536;2022-11-14T16:59:49;9.07;75.23
51878;SHT31;37911;51.526;11.536;2022-11-14T17:03:12;9.28;74.32
51878;SHT31;37911;51.526;11.536;2022-11-14T17:06:34;9.85;74.40
51878;SHT31;37911;51.526;11.536;2022-11-14T17:09:58;10.12;69.31
51878;SHT31;37911;51.526;11.536;2022-11-14T17:13:22;9.10;71.10
51878;SHT31;37911;51.526;11.536;2022-11-14T17:16:48;8.83;72.46
51878;SHT31;37911;51.526;11.536;2022-11-14T17:20:10;8.14;74.60
51878;SHT31;37911;51.526;11.536;2022-11-14T17:23:33;7.86;75.33
51878;SHT31;37911;51.526;11.536;2022-11-14T17:26:58;7.28;76.61
51878;SHT31;37911;51.526;11.536;2022-11-14T17:30:27;6.83;77.85
51878;SHT31;37911;51.526;11.536;2022-11-14T17:33:50;6.45;79.31
51878;SHT31;37911;51.526;11.536;2022-11-14T17:37:12;6.10;80.69
51878;SHT31;37911;51.526;11.536;2022-11-14T17:40:35;5.87;81.58
51878;SHT31;37911;51.526;11.536;2022-11-14T17:44:00;5.73;82.23
51878;SHT31;37911;51.526;11.536;2022-11-14T17:47:22;5.60;82.56
51878;SHT31;37911;51.526;11.536;2022-11-14T17:50:45;5.43;83.02
51878;SHT31;37911;51.526;11.536;2022-11-14T17:54:07;5.32;83.53
51878;SHT31;37911;51.526;11.536;2022-11-14T17:57:30;5.27;83.87
51878;SHT31;37911;51.526;11.536;2022-11-14T18:00:55;5.18;84.03
51878;SHT31;37911;51.526;11.536;2022-11-14T18:04:18;5.18;84.05
51878;SHT31;37911;51.526;11.536;2022-11-14T18:07:40;5.11;84.18
51878;SHT31;37911;51.526;11.536;2022-11-14T18:11:04;5.00;84.43
51878;SHT31;37911;51.526;11.536;2022-11-14T18:14:27;4.89;84.63
51878;SHT31;37911;51.526;11.536;2022-11-14T18:17:52;4.91;85.35
51878;SHT31;37911;51.526;11.536;2022-11-14T18:21:17;5.02;84.99
51878;SHT31;37911;51.526;11.536;2022-11-14T18:24:39;5.08;85.17
51878;SHT31;37911;51.526;11.536;2022-11-14T18:28:05;5.06;85.02
51878;SHT31;37911;51.526;11.536;2022-11-14T18:31:29;5.11;84.89
51878;SHT31;37911;51.526;11.536;2022-11-14T18:34:54;5.03;84.67
51878;SHT31;37911;51.526;11.536;2022-11-14T18:38:17;5.05;84.82
51878;SHT31;37911;51.526;11.536;2022-11-14T18:41:39;4.93;84.88
51878;SHT31;37911;51.526;11.536;2022-11-14T18:45:01;4.82;85.91
51878;SHT31;37911;51.526;11.536;2022-11-14T18:48:30;4.82;85.96
51878;SHT31;37911;51.526;11.536;2022-11-14T18:51:55;4.81;86.38
51878;SHT31;37911;51.526;11.536;2022-11-14T18:55:17;4.82;86.36
51878;SHT31;37911;51.526;11.536;2022-11-14T18:58:40;4.75;86.45
51878;SHT31;37911;51.526;11.536;2022-11-14T19:02:03;4.68;87.01
51878;SHT31;37911;51.526;11.536;2022-11-14T19:05:25;4.78;87.26
51878;SHT31;37911;51.526;11.536;2022-11-14T19:08:55;4.91;87.54
51878;SHT31;37911;51.526;11.536;2022-11-14T19:12:17;5.00;87.75
51878;SHT31;37911;51.526;11.536;2022-11-14T19:15:41;5.09;87.79
51878;SHT31;37911;51.526;11.536;2022-11-14T19:19:03;5.18;87.46
51878;SHT31;37911;51.526;11.536;2022-11-14T19:22:26;5.20;87.11
51878;SHT31;37911;51.526;11.536;2022-11-14T19:25:56;5.08;86.62
51878;SHT31;37911;51.526;11.536;2022-11-14T19:29:19;4.99;86.42
51878;SHT31;37911;51.526;11.536;2022-11-14T19:32:41;4.79;86.64
51878;SHT31;37911;51.526;11.536;2022-11-14T19:36:05;4.72;86.78
51878;SHT31;37911;51.526;11.536;2022-11-14T19:39:27;4.65;86.97
51878;SHT31;37911;51.526;11.536;2022-11-14T19:42:54;4.62;87.21
51878;SHT31;37911;51.526;11.536;2022-11-14T19:46:20;4.61;87.37
51878;SHT31;37911;51.526;11.536;2022-11-14T19:49:43;4.54;87.16
51878;SHT31;37911;51.526;11.536;2022-11-14T19:53:05;4.40;86.90
51878;SHT31;37911;51.526;11.536;2022-11-14T19:56:27;4.31;86.95
51878;SHT31;37911;51.526;11.536;2022-11-14T19:59:52;4.27;86.94
51878;SHT31;37911;51.526;11.536;2022-11-14T20:03:17;4.18;86.89
51878;SHT31;37911;51.526;11.536;2022-11-14T20:06:38;4.20;86.85
51878;SHT31;37911;51.526;11.536;2022-11-14T20:10:01;4.22;86.83
51878;SHT31;37911;51.526;11.536;2022-11-14T20:13:23;4.14;86.84
51878;SHT31;37911;51.526;11.536;2022-11-14T20:16:49;4.10;87.16
51878;SHT31;37911;51.526;11.536;2022-11-14T20:20:11;4.03;87.28
51878;SHT31;37911;51.526;11.536;2022-11-14T20:23:34;4.01;87.46
51878;SHT31;37911;51.526;11.536;2022-11-14T20:26:56;3.91;87.41
51878;SHT31;37911;51.526;11.536;2022-11-14T20:30:19;3.96;87.31
51878;SHT31;37911;51.526;11.536;2022-11-14T20:33:45;3.93;87.30
51878;SHT31;37911;51.526;11.536;2022-11-14T20:37:08;3.91;87.35
51878;SHT31;37911;51.526;11.536;2022-11-14T20:40:31;3.85;86.98
51878;SHT31;37911;51.526;11.536;2022-11-14T20:43:54;3.80;86.59
51878;SHT31;37911;51.526;11.536;2022-11-14T20:47:16;3.77;86.56
51878;SHT31;37911;51.526;11.536;2022-11-14T20:50:43;3.75;86.69
51878;SHT31;37911;51.526;11.536;2022-11-14T20:54:07;3.72;86.92
51878;SHT31;37911;51.526;11.536;2022-11-14T20:57:29;3.59;86.73
51878;SHT31;37911;51.526;11.536;2022-11-14T21:00:53;3.49;86.81
51878;SHT31;37911;51.526;11.536;2022-11-14T21:04:16;3.46;87.23
51878;SHT31;37911;51.526;11.536;2022-11-14T21:07:41;3.39;87.40
51878;SHT31;37911;51.526;11.536;2022-11-14T21:11:06;3.42;87.45
51878;SHT31;37911;51.526;11.536;2022-11-14T21:14:29;3.42;87.53
51878;SHT31;37911;51.526;11.536;2022-11-14T21:17:51;3.39;87.69
51878;SHT31;37911;51.526;11.536;2022-11-14T21:21:15;3.38;87.73
51878;SHT31;37911;51.526;11.536;2022-11-14T21:24:40;3.36;87.65
51878;SHT31;37911;51.526;11.536;2022-11-14T21:28:02;3.36;87.72
51878;SHT31;37911;51.526;11.536;2022-11-14T21:31:26;3.39;87.92
51878;SHT31;37911;51.526;11.536;2022-11-14T21:34:49;3.40;87.88
51878;SHT31;37911;51.526;11.536;2022-11-14T21:38:12;3.39;87.88
51878;SHT31;37911;51.526;11.536;2022-11-14T21:41:37;3.38;87.99
51878;SHT31;37911;51.526;11.536;2022-11-14T21:44:59;3.38;87.86
51878;SHT31;37911;51.526;11.536;2022-11-14T21:48:21;3.42;87.92
51878;SHT31;37911;51.526;11.536;2022-11-14T21:55:05;3.43;87.86